createdAt,value
2019-05-18T00:00:57.179Z,19.30
2019-05-18T00:01:57.187Z,20.70
2019-05-18T00:02:57.186Z,20.70
2019-05-18T00:03:57.199Z,20.90
2019-05-18T00:04:57.204Z,20.10
2019-05-18T00:05:57.223Z,19.50
2019-05-18T00:06:57.216Z,19.50
2019-05-18T00:07:57.225Z,18.40
2019-05-18T00:08:57.237Z,19.80
2019-05-18T00:09:57.247Z,19.00
2019-05-18T00:10:57.261Z,20.10
2019-05-18T00:11:57.260Z,20.60
2019-05-18T00:12:57.261Z,24.40
2019-05-18T00:13:57.270Z,22.90
2019-05-18T00:14:57.278Z,19.70
2019-05-18T00:15:57.285Z,21.70
2019-05-18T00:16:57.289Z,22.20
2019-05-18T00:17:57.300Z,21.00
2019-05-18T00:18:57.304Z,19.80
2019-05-18T00:19:57.312Z,21.50
2019-05-18T00:20:57.334Z,21.60
2019-05-18T00:21:57.326Z,22.50
2019-05-18T00:22:57.337Z,21.90
2019-05-18T00:23:57.337Z,21.30
2019-05-18T00:24:57.345Z,20.40
2019-05-18T00:25:57.355Z,19.60
2019-05-18T00:26:57.419Z,21.10
2019-05-18T00:27:57.358Z,21.40
2019-05-18T00:28:57.371Z,19.10
2019-05-18T00:29:57.375Z,20.10
2019-05-18T00:30:57.381Z,19.50
2019-05-18T00:31:57.477Z,20.40
2019-05-18T00:32:57.398Z,21.40
2019-05-18T00:33:57.415Z,19.30
2019-05-18T00:34:57.536Z,19.80
2019-05-18T00:35:57.419Z,20.50
2019-05-18T00:36:57.446Z,20.10
2019-05-18T00:37:57.473Z,20.80
2019-05-18T00:38:57.451Z,19.40
2019-05-18T00:39:57.448Z,19.70
2019-05-18T00:40:57.453Z,19.70
2019-05-18T00:41:57.462Z,19.60
2019-05-18T00:42:57.464Z,20.40
2019-05-18T00:43:57.472Z,19.70
2019-05-18T00:44:57.488Z,20.60
2019-05-18T00:45:57.488Z,20.50
2019-05-18T00:46:57.489Z,20.40
2019-05-18T00:47:57.544Z,20.40
2019-05-18T00:48:57.503Z,21.50
2019-05-18T00:49:57.519Z,22.20
2019-05-18T00:50:57.522Z,22.40
2019-05-18T00:51:57.525Z,22.00
2019-05-18T00:52:57.540Z,23.10
2019-05-18T00:53:57.539Z,22.50
2019-05-18T00:54:57.549Z,22.20
2019-05-18T00:55:57.551Z,20.90
2019-05-18T00:56:57.572Z,21.10
2019-05-18T00:57:57.565Z,19.60
2019-05-18T00:58:57.574Z,19.70
2019-05-18T00:59:57.587Z,21.20
2019-05-18T01:00:57.589Z,20.70
2019-05-18T01:01:57.594Z,20.40
2019-05-18T01:02:57.616Z,21.20
2019-05-18T01:03:57.595Z,20.60
2019-05-18T01:04:57.606Z,20.40
2019-05-18T01:05:57.620Z,21.80
2019-05-18T01:06:57.619Z,21.00
2019-05-18T01:07:57.622Z,22.60
2019-05-18T01:08:57.631Z,27.00
2019-05-18T01:09:57.637Z,22.10
2019-05-18T01:10:57.650Z,22.10
2019-05-18T01:11:57.662Z,20.60
2019-05-18T01:12:57.656Z,21.30
2019-05-18T01:13:57.673Z,20.50
2019-05-18T01:14:57.673Z,20.50
2019-05-18T01:15:57.680Z,20.00
2019-05-18T01:16:57.693Z,21.20
2019-05-18T01:18:01.430Z,21.90
2019-05-18T01:18:57.707Z,22.80
2019-05-18T01:19:57.713Z,21.60
2019-05-18T01:20:57.719Z,20.90
2019-05-18T01:21:57.726Z,20.70
2019-05-18T01:22:57.729Z,21.00
2019-05-18T01:23:57.728Z,21.60
2019-05-18T01:24:57.748Z,20.40
2019-05-18T01:25:57.755Z,23.30
2019-05-18T01:26:57.759Z,23.80
2019-05-18T01:27:57.761Z,22.10
2019-05-18T01:28:57.832Z,21.70
2019-05-18T01:29:57.775Z,21.10
2019-05-18T01:30:57.779Z,20.90
2019-05-18T01:31:57.797Z,22.00
2019-05-18T01:32:57.798Z,23.10
2019-05-18T01:33:57.801Z,20.60
2019-05-18T01:34:57.811Z,20.90
2019-05-18T01:35:57.807Z,20.60
2019-05-18T01:36:57.825Z,21.00
2019-05-18T01:37:57.836Z,20.50
2019-05-18T01:38:57.895Z,21.50
2019-05-18T01:39:57.847Z,21.20
2019-05-18T01:40:57.859Z,20.50
2019-05-18T01:41:57.858Z,21.90
2019-05-18T01:42:57.860Z,22.50
2019-05-18T01:43:57.870Z,21.30
2019-05-18T01:44:57.875Z,21.60
2019-05-18T01:45:57.916Z,21.40
2019-05-18T01:46:57.879Z,21.50
2019-05-18T01:48:12.732Z,22.00
2019-05-18T01:48:58.022Z,21.40
2019-05-18T01:49:57.909Z,21.80
2019-05-18T01:50:57.915Z,21.20
2019-05-18T01:51:57.923Z,22.30
2019-05-18T01:52:57.927Z,21.40
2019-05-18T01:53:57.931Z,21.40
2019-05-18T01:54:57.937Z,21.90
2019-05-18T01:55:57.949Z,22.60
2019-05-18T01:56:57.949Z,22.60
2019-05-18T01:57:57.958Z,21.30
2019-05-18T01:58:57.966Z,22.30
2019-05-18T01:59:57.973Z,21.70
2019-05-18T02:00:57.978Z,22.00
2019-05-18T02:01:57.988Z,22.20
2019-05-18T02:02:57.987Z,21.20
2019-05-18T02:03:58.064Z,22.90
2019-05-18T02:04:58.005Z,21.60
2019-05-18T02:05:58.010Z,21.60
2019-05-18T02:06:58.020Z,22.20
2019-05-18T02:07:58.027Z,21.30
2019-05-18T02:08:58.040Z,21.90
2019-05-18T02:09:58.051Z,24.60
2019-05-18T02:10:58.093Z,22.40
2019-05-18T02:11:58.045Z,23.00
2019-05-18T02:12:58.054Z,22.40
2019-05-18T02:13:58.073Z,21.00
2019-05-18T02:14:58.077Z,22.10
2019-05-18T02:15:58.076Z,22.60
2019-05-18T02:16:58.082Z,22.00
2019-05-18T02:17:58.083Z,22.90
2019-05-18T02:18:58.094Z,22.00
2019-05-18T02:19:58.092Z,21.80
2019-05-18T02:20:58.109Z,22.20
2019-05-18T02:21:58.111Z,23.40
2019-05-18T02:22:58.120Z,22.70
2019-05-18T02:23:58.124Z,22.40
2019-05-18T02:24:58.125Z,22.10
2019-05-18T02:25:58.141Z,22.60
2019-05-18T02:26:58.269Z,23.10
2019-05-18T02:27:58.151Z,21.10
2019-05-18T02:28:58.147Z,21.60
2019-05-18T02:29:58.215Z,22.30
2019-05-18T02:30:58.165Z,22.60
2019-05-18T02:31:58.183Z,22.00
2019-05-18T02:32:58.192Z,22.00
2019-05-18T02:33:58.207Z,22.10
2019-05-18T02:34:58.195Z,21.50
2019-05-18T02:35:58.207Z,22.90
2019-05-18T02:36:58.214Z,21.70
2019-05-18T02:37:58.214Z,23.00
2019-05-18T02:38:58.225Z,22.00
2019-05-18T02:39:58.292Z,22.40
2019-05-18T02:40:58.237Z,23.20
2019-05-18T02:41:58.247Z,23.10
2019-05-18T02:42:58.250Z,21.80
2019-05-18T02:43:58.262Z,22.40
2019-05-18T02:44:58.260Z,23.40
2019-05-18T02:45:58.260Z,22.90
2019-05-18T02:46:58.284Z,22.30
2019-05-18T02:47:58.281Z,22.50
2019-05-18T02:48:58.286Z,22.10
2019-05-18T02:49:58.300Z,21.90
2019-05-18T02:50:58.300Z,22.00
2019-05-18T02:51:58.310Z,22.60
2019-05-18T02:52:58.321Z,22.70
2019-05-18T02:53:58.320Z,21.80
2019-05-18T02:54:58.336Z,21.20
2019-05-18T02:55:58.333Z,23.60
2019-05-18T02:56:58.333Z,22.50
2019-05-18T02:57:58.346Z,23.10
2019-05-18T02:58:58.343Z,21.70
2019-05-18T02:59:58.354Z,22.80
2019-05-18T03:00:58.356Z,23.20
2019-05-18T03:01:58.365Z,23.10
2019-05-18T03:02:58.375Z,23.80
2019-05-18T03:03:58.372Z,24.50
2019-05-18T03:04:58.414Z,23.60
2019-05-18T03:05:58.402Z,22.70
2019-05-18T03:06:58.399Z,22.80
2019-05-18T03:07:58.527Z,24.00
2019-05-18T03:08:58.410Z,25.00
2019-05-18T03:09:58.413Z,24.80
2019-05-18T03:10:58.414Z,23.50
2019-05-18T03:11:58.434Z,23.70
2019-05-18T03:12:58.428Z,27.50
2019-05-18T03:13:58.452Z,25.70
2019-05-18T03:14:58.438Z,24.10
2019-05-18T03:15:58.450Z,23.20
2019-05-18T03:16:58.474Z,24.00
2019-05-18T03:17:58.600Z,23.60
2019-05-18T03:19:08.107Z,23.50
2019-05-18T03:19:58.473Z,23.90
2019-05-18T03:20:58.506Z,23.90
2019-05-18T03:22:01.001Z,23.90
2019-05-18T03:22:58.493Z,24.00
2019-05-18T03:23:58.508Z,23.60
2019-05-18T03:24:58.502Z,24.50
2019-05-18T03:25:58.523Z,23.20
2019-05-18T03:26:58.518Z,25.30
2019-05-18T03:27:58.527Z,25.50
2019-05-18T03:28:58.525Z,24.20
2019-05-18T03:29:58.535Z,24.90
2019-05-18T03:30:58.667Z,24.40
2019-05-18T03:31:58.589Z,23.60
2019-05-18T03:32:58.551Z,24.50
2019-05-18T03:33:58.573Z,24.90
2019-05-18T03:34:58.587Z,23.20
2019-05-18T03:35:58.576Z,23.50
2019-05-18T03:36:58.575Z,23.80
2019-05-18T03:37:58.584Z,24.50
2019-05-18T03:38:58.590Z,23.30
2019-05-18T03:39:58.591Z,24.50
2019-05-18T03:40:58.601Z,25.00
2019-05-18T03:41:58.617Z,25.00
2019-05-18T03:42:58.615Z,24.60
2019-05-18T03:43:58.616Z,23.60
2019-05-18T03:44:58.624Z,24.80
2019-05-18T03:45:58.635Z,24.00
2019-05-18T03:46:58.637Z,24.60
2019-05-18T03:47:58.643Z,24.40
2019-05-18T03:48:58.651Z,25.80
2019-05-18T03:49:58.655Z,24.90
2019-05-18T03:50:58.663Z,25.00
2019-05-18T03:51:58.668Z,24.10
2019-05-18T03:52:58.676Z,24.60
2019-05-18T03:53:58.680Z,24.70
2019-05-18T03:54:58.687Z,24.60
2019-05-18T03:55:58.695Z,25.30
2019-05-18T03:56:58.699Z,25.20
2019-05-18T03:57:58.703Z,24.10
2019-05-18T03:58:58.851Z,25.20
2019-05-18T03:59:58.719Z,25.20
2019-05-18T04:00:58.725Z,25.50
2019-05-18T04:01:58.736Z,24.40
2019-05-18T04:02:58.731Z,25.00
2019-05-18T04:03:58.741Z,25.50
2019-05-18T04:04:58.748Z,24.20
2019-05-18T04:05:58.757Z,24.50
2019-05-18T04:06:58.760Z,23.70
2019-05-18T04:07:58.771Z,25.40
2019-05-18T04:08:58.765Z,25.30
2019-05-18T04:09:58.785Z,24.60
2019-05-18T04:10:58.809Z,24.90
2019-05-18T04:11:58.835Z,24.30
2019-05-18T04:12:58.800Z,24.30
2019-05-18T04:13:58.809Z,24.10
2019-05-18T04:14:58.816Z,24.70
2019-05-18T04:15:58.813Z,24.30
2019-05-18T04:16:58.821Z,24.30
2019-05-18T04:17:58.827Z,24.60
2019-05-18T04:18:58.836Z,25.40
2019-05-18T04:19:58.830Z,23.00
2019-05-18T04:20:58.845Z,25.30
2019-05-18T04:21:58.856Z,24.10
2019-05-18T04:22:58.860Z,25.10
2019-05-18T04:23:58.863Z,24.30
2019-05-18T04:24:58.870Z,25.00
2019-05-18T04:25:58.878Z,25.40
2019-05-18T04:26:58.882Z,24.40
2019-05-18T04:27:58.886Z,24.60
2019-05-18T04:28:58.904Z,24.80
2019-05-18T04:29:58.903Z,23.80
2019-05-18T04:30:58.913Z,24.30
2019-05-18T04:31:58.923Z,23.50
2019-05-18T04:32:58.921Z,24.80
2019-05-18T04:33:58.923Z,24.90
2019-05-18T04:34:58.930Z,23.80
2019-05-18T04:35:58.935Z,24.40
2019-05-18T04:36:58.942Z,24.90
2019-05-18T04:37:58.950Z,23.90
2019-05-18T04:38:58.970Z,23.90
2019-05-18T04:39:59.054Z,23.60
2019-05-18T04:40:58.969Z,22.20
2019-05-18T04:41:58.972Z,24.00
2019-05-18T04:42:58.982Z,23.40
2019-05-18T04:43:58.995Z,23.90
2019-05-18T04:44:58.996Z,24.30
2019-05-18T04:45:59.000Z,24.60
2019-05-18T04:46:59.004Z,23.60
2019-05-18T04:47:59.071Z,24.40
2019-05-18T04:48:59.017Z,23.70
2019-05-18T04:50:05.401Z,25.00
2019-05-18T04:50:59.036Z,24.40
2019-05-18T04:51:59.038Z,24.10
2019-05-18T04:52:59.045Z,23.70
2019-05-18T04:53:59.051Z,23.50
2019-05-18T04:54:59.061Z,23.60
2019-05-18T04:55:59.063Z,22.90
2019-05-18T04:56:59.070Z,24.20
2019-05-18T04:57:59.084Z,23.50
2019-05-18T04:58:59.115Z,23.60
2019-05-18T04:59:59.144Z,22.90
2019-05-18T05:00:59.109Z,24.10
2019-05-18T05:01:59.181Z,23.10
2019-05-18T05:02:59.129Z,23.10
2019-05-18T05:03:59.130Z,23.30
2019-05-18T05:04:59.132Z,23.90
2019-05-18T05:05:59.151Z,22.90
2019-05-18T05:06:59.154Z,22.50
2019-05-18T05:07:59.140Z,23.80
2019-05-18T05:08:59.176Z,22.80
2019-05-18T05:09:59.176Z,23.00
2019-05-18T05:10:59.187Z,22.90
2019-05-18T05:11:59.182Z,22.10
2019-05-18T05:12:59.258Z,21.80
2019-05-18T05:13:59.203Z,22.70
2019-05-18T05:14:59.207Z,22.90
2019-05-18T05:15:59.213Z,22.70
2019-05-18T05:16:59.212Z,22.20
2019-05-18T05:17:59.222Z,23.20
2019-05-18T05:18:59.234Z,23.10
2019-05-18T05:19:59.247Z,22.70
2019-05-18T05:20:59.229Z,22.60
2019-05-18T05:21:59.257Z,23.30
2019-05-18T05:22:59.259Z,23.20
2019-05-18T05:23:59.273Z,24.50
2019-05-18T05:24:59.280Z,23.90
2019-05-18T05:25:59.268Z,22.40
2019-05-18T05:26:59.301Z,23.00
2019-05-18T05:27:59.305Z,22.30
2019-05-18T05:28:59.296Z,22.70
2019-05-18T05:29:59.323Z,21.90
2019-05-18T05:30:59.311Z,22.00
2019-05-18T05:31:59.327Z,23.70
2019-05-18T05:32:59.322Z,23.00
2019-05-18T05:33:59.392Z,22.70
2019-05-18T05:34:59.348Z,22.30
2019-05-18T05:35:59.344Z,22.40
2019-05-18T05:36:59.351Z,23.00
2019-05-18T05:37:59.358Z,22.20
2019-05-18T05:38:59.380Z,22.50
2019-05-18T05:39:59.368Z,22.50
2019-05-18T05:40:59.439Z,22.50
2019-05-18T05:41:59.384Z,22.90
2019-05-18T05:42:59.394Z,22.50
2019-05-18T05:43:59.402Z,22.50
2019-05-18T05:44:59.406Z,22.80
2019-05-18T05:45:59.420Z,21.30
2019-05-18T05:46:59.441Z,23.30
2019-05-18T05:47:59.423Z,23.50
2019-05-18T05:48:59.436Z,23.80
2019-05-18T05:49:59.446Z,23.20
2019-05-18T05:50:59.458Z,22.60
2019-05-18T05:51:59.458Z,23.80
2019-05-18T05:52:59.473Z,22.30
2019-05-18T05:53:59.472Z,22.90
2019-05-18T05:54:59.492Z,24.10
2019-05-18T05:55:59.488Z,24.80
2019-05-18T05:56:59.492Z,23.00
2019-05-18T05:57:59.498Z,22.90
2019-05-18T05:58:59.510Z,22.30
2019-05-18T05:59:59.522Z,23.90
2019-05-18T06:00:59.604Z,23.90
2019-05-18T06:01:59.532Z,23.60
2019-05-18T06:02:59.539Z,22.70
2019-05-18T06:03:59.557Z,23.20
2019-05-18T06:04:59.556Z,23.70
2019-05-18T06:05:59.567Z,23.20
2019-05-18T06:06:59.574Z,23.10
2019-05-18T06:07:59.583Z,23.50
2019-05-18T06:08:59.596Z,23.20
2019-05-18T06:09:59.596Z,22.30
2019-05-18T06:10:59.607Z,24.60
2019-05-18T06:11:59.612Z,23.40
2019-05-18T06:12:59.622Z,23.90
2019-05-18T06:13:59.636Z,24.00
2019-05-18T06:14:59.634Z,21.90
2019-05-18T06:15:59.649Z,21.40
2019-05-18T06:16:59.659Z,20.60
2019-05-18T06:17:59.656Z,21.80
2019-05-18T06:18:59.675Z,21.00
2019-05-18T06:19:59.682Z,21.60
2019-05-18T06:20:59.701Z,22.00
2019-05-18T06:21:59.701Z,20.90
2019-05-18T06:22:59.713Z,21.30
2019-05-18T06:23:59.727Z,21.10
2019-05-18T06:24:59.736Z,20.40
2019-05-18T06:25:59.752Z,21.20
2019-05-18T06:26:59.755Z,19.90
2019-05-18T06:27:59.766Z,20.10
2019-05-18T06:28:59.780Z,19.60
2019-05-18T06:29:59.803Z,20.40
2019-05-18T06:30:59.826Z,21.10
2019-05-18T06:31:59.818Z,22.10
2019-05-18T06:32:59.831Z,20.30
2019-05-18T06:33:59.843Z,19.30
2019-05-18T06:34:59.859Z,21.40
2019-05-18T06:35:59.873Z,18.70
2019-05-18T06:36:59.877Z,19.30
2019-05-18T06:37:59.893Z,18.90
2019-05-18T06:38:59.904Z,21.00
2019-05-18T06:39:59.922Z,19.70
2019-05-18T06:40:59.938Z,18.00
2019-05-18T06:41:59.956Z,17.50
2019-05-18T06:42:59.964Z,16.70
2019-05-18T06:43:59.975Z,18.00
2019-05-18T06:44:59.989Z,17.30
2019-05-18T06:46:00.003Z,16.90
2019-05-18T06:47:00.015Z,17.30
2019-05-18T06:48:00.036Z,17.00
2019-05-18T06:49:00.053Z,17.10
2019-05-18T06:50:00.056Z,18.20
2019-05-18T06:51:07.114Z,17.00
2019-05-18T06:52:00.085Z,17.00
2019-05-18T06:53:00.104Z,16.60
2019-05-18T06:54:00.120Z,17.20
2019-05-18T06:55:00.135Z,17.80
2019-05-18T06:56:00.144Z,17.10
2019-05-18T06:57:00.158Z,18.20
2019-05-18T06:58:00.176Z,17.10
2019-05-18T06:59:00.184Z,17.10
2019-05-18T07:00:00.216Z,18.40
2019-05-18T07:01:00.232Z,16.70
2019-05-18T07:02:00.233Z,18.10
2019-05-18T07:03:00.251Z,17.10
2019-05-18T07:04:00.275Z,16.00
2019-05-18T07:05:00.273Z,16.20
2019-05-18T07:06:00.300Z,16.50
2019-05-18T07:07:00.310Z,16.50
2019-05-18T07:08:00.328Z,16.60
2019-05-18T07:09:00.337Z,15.80
2019-05-18T07:10:00.353Z,15.90
2019-05-18T07:11:00.359Z,15.60
2019-05-18T07:12:00.379Z,15.50
2019-05-18T07:13:00.400Z,15.80
2019-05-18T07:14:00.417Z,15.90
2019-05-18T07:15:00.713Z,15.10
2019-05-18T07:16:00.447Z,15.20
2019-05-18T07:17:00.457Z,14.20
2019-05-18T07:18:00.480Z,14.70
2019-05-18T07:19:00.486Z,14.10
2019-05-18T07:20:00.504Z,14.00
2019-05-18T07:21:00.519Z,14.30
2019-05-18T07:22:00.542Z,13.40
2019-05-18T07:23:00.561Z,13.80
2019-05-18T07:24:00.605Z,14.70
2019-05-18T07:25:00.590Z,13.90
2019-05-18T07:26:00.593Z,13.60
2019-05-18T07:27:00.609Z,14.00
2019-05-18T07:28:00.635Z,13.80
2019-05-18T07:29:00.645Z,13.80
2019-05-18T07:30:00.670Z,13.20
2019-05-18T07:31:00.677Z,14.20
2019-05-18T07:32:00.698Z,14.20
2019-05-18T07:33:00.713Z,14.60
2019-05-18T07:34:00.739Z,14.00
2019-05-18T07:35:00.743Z,14.10
2019-05-18T07:36:00.755Z,13.50
2019-05-18T07:37:00.764Z,13.80
2019-05-18T07:38:00.779Z,12.80
2019-05-18T07:39:00.802Z,13.90
2019-05-18T07:40:00.820Z,13.40
2019-05-18T07:41:00.895Z,13.10
2019-05-18T07:42:00.871Z,13.00
2019-05-18T07:43:00.878Z,12.80
2019-05-18T07:44:00.881Z,12.30
2019-05-18T07:45:00.905Z,12.80
2019-05-18T07:46:00.928Z,12.60
2019-05-18T07:47:00.930Z,12.60
2019-05-18T07:49:00.962Z,12.50
2019-05-18T07:50:00.989Z,12.00
2019-05-18T07:51:01.002Z,10.90
2019-05-18T07:52:01.020Z,11.40
2019-05-18T07:53:01.027Z,11.60
2019-05-18T07:54:01.051Z,11.30
2019-05-18T07:55:01.065Z,11.80
2019-05-18T07:56:01.080Z,11.50
2019-05-18T07:57:01.106Z,11.50
2019-05-18T07:58:01.118Z,11.30
2019-05-18T07:59:01.130Z,12.20
2019-05-18T08:00:01.142Z,11.10
2019-05-18T08:01:01.160Z,10.80
2019-05-18T08:02:01.229Z,11.90
2019-05-18T08:03:01.224Z,12.00
2019-05-18T08:04:01.219Z,12.30
2019-05-18T08:05:01.222Z,12.20
2019-05-18T08:06:01.327Z,11.70
2019-05-18T08:07:01.258Z,11.00
2019-05-18T08:08:01.287Z,11.00
2019-05-18T08:09:01.305Z,10.60
2019-05-18T08:10:01.306Z,11.30
2019-05-18T08:11:01.324Z,10.90
2019-05-18T08:12:01.342Z,10.10
2019-05-18T08:13:01.356Z,9.80
2019-05-18T08:14:01.382Z,9.40
2019-05-18T08:15:01.416Z,9.70
2019-05-18T08:16:01.450Z,9.60
2019-05-18T08:17:01.431Z,9.70
2019-05-18T08:18:01.442Z,9.90
2019-05-18T08:19:01.471Z,9.70
2019-05-18T08:20:01.483Z,9.80
2019-05-18T08:21:01.494Z,9.20
2019-05-18T08:22:01.511Z,9.30
2019-05-18T08:23:01.527Z,10.10
2019-05-18T08:24:01.550Z,10.20
2019-05-18T08:25:01.573Z,10.60
2019-05-18T08:26:01.609Z,10.20
2019-05-18T08:27:02.443Z,10.10
2019-05-18T08:28:01.625Z,10.90
2019-05-18T08:29:01.633Z,10.70
2019-05-18T08:30:01.680Z,9.70
2019-05-18T08:31:01.664Z,10.00
2019-05-18T08:32:01.685Z,9.80
2019-05-18T08:33:01.857Z,9.90
2019-05-18T08:34:01.740Z,10.50
2019-05-18T08:35:01.733Z,11.40
2019-05-18T08:36:01.778Z,11.30
2019-05-18T08:37:01.782Z,10.90
2019-05-18T08:38:01.813Z,11.30
2019-05-18T08:39:01.890Z,10.70
2019-05-18T08:40:01.821Z,11.20
2019-05-18T08:41:01.857Z,11.10
2019-05-18T08:42:01.848Z,10.60
2019-05-18T08:43:01.913Z,10.10
2019-05-18T08:44:01.895Z,10.90
2019-05-18T08:45:01.894Z,10.70
2019-05-18T08:46:01.976Z,9.60
2019-05-18T08:47:01.970Z,10.20
2019-05-18T08:48:01.971Z,10.10
2019-05-18T08:49:01.981Z,9.50
2019-05-18T08:50:01.994Z,9.00
2019-05-18T08:51:02.010Z,9.40
2019-05-18T08:52:08.242Z,10.20
2019-05-18T08:53:02.043Z,9.30
2019-05-18T08:54:02.057Z,7.80
2019-05-18T08:55:02.239Z,7.50
2019-05-18T08:56:02.094Z,7.40
2019-05-18T08:57:02.112Z,7.20
2019-05-18T08:58:02.127Z,6.60
2019-05-18T08:59:02.145Z,6.50
2019-05-18T09:00:02.178Z,7.00
2019-05-18T09:01:02.179Z,7.50
2019-05-18T09:02:02.195Z,6.60
2019-05-18T09:03:02.212Z,7.30
2019-05-18T09:04:02.228Z,7.50
2019-05-18T09:05:04.829Z,8.00
2019-05-18T09:06:02.258Z,7.70
2019-05-18T09:07:02.294Z,8.90
2019-05-18T09:08:02.303Z,7.50
2019-05-18T09:09:02.311Z,7.90
2019-05-18T09:10:02.342Z,7.30
2019-05-18T09:11:02.351Z,6.90
2019-05-18T09:12:02.409Z,7.30
2019-05-18T09:13:02.429Z,7.10
2019-05-18T09:14:02.405Z,7.10
2019-05-18T09:15:02.420Z,7.40
2019-05-18T09:16:02.446Z,7.30
2019-05-18T09:17:02.460Z,7.50
2019-05-18T09:18:04.866Z,6.90
2019-05-18T09:19:02.499Z,6.60
2019-05-18T09:20:02.510Z,6.80
2019-05-18T09:21:02.533Z,6.20
2019-05-18T09:22:02.548Z,6.80
2019-05-18T09:23:02.568Z,7.30
2019-05-18T09:24:02.584Z,7.20
2019-05-18T09:25:02.718Z,7.90
2019-05-18T09:26:02.648Z,7.10
2019-05-18T09:27:02.636Z,7.70
2019-05-18T09:28:02.658Z,6.60
2019-05-18T09:29:02.854Z,6.30
2019-05-18T09:30:02.710Z,6.30
2019-05-18T09:31:02.704Z,6.90
2019-05-18T09:32:02.726Z,6.10
2019-05-18T09:33:02.739Z,5.70
2019-05-18T09:34:02.758Z,6.40
2019-05-18T09:35:02.774Z,6.60
2019-05-18T09:36:02.797Z,6.90
2019-05-18T09:37:02.813Z,6.80
2019-05-18T09:38:02.830Z,6.30
2019-05-18T09:39:02.875Z,6.30
2019-05-18T09:40:02.871Z,6.60
2019-05-18T09:41:02.905Z,6.10
2019-05-18T09:42:02.908Z,19.60
2019-05-18T09:43:02.917Z,7.90
2019-05-18T09:44:02.942Z,6.50
2019-05-18T09:45:02.957Z,6.60
2019-05-18T09:46:02.968Z,6.90
2019-05-18T09:47:02.989Z,6.70
2019-05-18T09:48:03.052Z,6.70
2019-05-18T09:49:03.029Z,6.20
2019-05-18T09:50:03.050Z,7.20
2019-05-18T09:51:03.064Z,7.90
2019-05-18T09:52:03.140Z,7.00
2019-05-18T09:53:03.110Z,6.10
2019-05-18T09:54:03.126Z,6.00
2019-05-18T09:55:03.146Z,6.20
2019-05-18T09:56:03.172Z,6.60
2019-05-18T09:57:03.180Z,7.00
2019-05-18T09:58:03.196Z,7.50
2019-05-18T09:59:03.206Z,7.30
2019-05-18T10:00:03.264Z,10.70
2019-05-18T10:01:03.250Z,7.30
2019-05-18T10:02:03.258Z,7.10
2019-05-18T10:03:03.277Z,5.90
2019-05-18T10:04:03.310Z,6.00
2019-05-18T10:05:03.323Z,6.30
2019-05-18T10:06:03.334Z,7.50
2019-05-18T10:07:03.360Z,7.10
2019-05-18T10:08:03.416Z,6.00
2019-05-18T10:09:03.397Z,7.10
2019-05-18T10:10:03.421Z,7.40
2019-05-18T10:11:03.421Z,6.70
2019-05-18T10:12:03.457Z,5.90
2019-05-18T10:13:03.470Z,5.60
2019-05-18T10:14:03.476Z,5.20
2019-05-18T10:15:03.545Z,5.80
2019-05-18T10:16:03.516Z,5.40
2019-05-18T10:17:03.632Z,4.90
2019-05-18T10:18:03.545Z,4.80
2019-05-18T10:19:03.565Z,4.00
2019-05-18T10:20:03.589Z,3.10
2019-05-18T10:21:03.756Z,3.00
2019-05-18T10:22:03.617Z,4.50
2019-05-18T10:23:12.331Z,4.30
2019-05-18T10:24:03.645Z,3.70
2019-05-18T10:25:03.675Z,4.30
2019-05-18T10:26:03.716Z,4.30
2019-05-18T10:27:03.715Z,5.80
2019-05-18T10:28:03.731Z,5.50
2019-05-18T10:29:03.733Z,5.90
2019-05-18T10:30:03.765Z,5.40
2019-05-18T10:31:03.801Z,5.40
2019-05-18T10:32:03.808Z,6.50
2019-05-18T10:33:03.895Z,6.90
2019-05-18T10:34:03.843Z,6.40
2019-05-18T10:35:03.855Z,5.90
2019-05-18T10:36:03.877Z,6.30
2019-05-18T10:37:03.902Z,4.80
2019-05-18T10:38:03.932Z,5.40
2019-05-18T10:39:03.937Z,5.60
2019-05-18T10:40:03.948Z,6.00
2019-05-18T10:41:03.958Z,6.00
2019-05-18T10:42:03.977Z,6.60
2019-05-18T10:43:03.997Z,6.70
2019-05-18T10:44:04.019Z,7.10
2019-05-18T10:45:04.025Z,6.30
2019-05-18T10:46:04.045Z,6.40
2019-05-18T10:47:04.065Z,7.00
2019-05-18T10:48:04.087Z,7.00
2019-05-18T10:49:04.097Z,7.50
2019-05-18T10:50:04.125Z,7.60
2019-05-18T10:51:05.693Z,6.90
2019-05-18T10:52:04.154Z,7.40
2019-05-18T10:53:04.169Z,7.20
2019-05-18T10:54:04.185Z,7.40
2019-05-18T10:55:04.204Z,7.50
2019-05-18T10:56:04.307Z,7.40
2019-05-18T10:57:04.270Z,7.10
2019-05-18T10:58:04.266Z,6.40
2019-05-18T10:59:04.361Z,6.70
2019-05-18T11:00:04.328Z,6.20
2019-05-18T11:01:04.391Z,6.60
2019-05-18T11:02:04.327Z,6.80
2019-05-18T11:04:04.370Z,7.00
2019-05-18T11:05:04.402Z,6.90
2019-05-18T11:06:04.396Z,6.90
2019-05-18T11:07:04.411Z,7.00
2019-05-18T11:08:04.439Z,6.70
2019-05-18T11:09:04.489Z,6.50
2019-05-18T11:10:04.470Z,6.70
2019-05-18T11:11:04.524Z,6.90
2019-05-18T11:12:04.513Z,7.00
2019-05-18T11:13:04.532Z,6.10
2019-05-18T11:14:04.538Z,6.10
2019-05-18T11:15:04.566Z,6.60
2019-05-18T11:16:04.607Z,5.70
2019-05-18T11:17:04.626Z,5.30
2019-05-18T11:18:04.614Z,5.20
2019-05-18T11:19:04.635Z,5.40
2019-05-18T11:20:04.648Z,5.50
2019-05-18T11:21:04.671Z,5.50
2019-05-18T11:22:04.686Z,7.50
2019-05-18T11:23:04.710Z,5.40
2019-05-18T11:24:04.728Z,5.40
2019-05-18T11:25:04.779Z,4.60
2019-05-18T11:26:04.841Z,4.90
2019-05-18T11:27:04.789Z,4.90
2019-05-18T11:28:04.816Z,4.60
2019-05-18T11:29:04.826Z,5.60
2019-05-18T11:30:04.921Z,5.10
2019-05-18T11:31:04.863Z,5.50
2019-05-18T11:32:04.884Z,6.60
2019-05-18T11:33:04.934Z,5.20
2019-05-18T11:34:04.927Z,4.50
2019-05-18T11:35:04.942Z,4.70
2019-05-18T11:36:04.964Z,4.60
2019-05-18T11:37:04.985Z,4.50
2019-05-18T11:38:05.001Z,4.20
2019-05-18T11:39:05.032Z,4.60
2019-05-18T11:40:05.063Z,5.40
2019-05-18T11:41:05.157Z,4.80
2019-05-18T11:42:05.086Z,4.80
2019-05-18T11:43:05.118Z,4.60
2019-05-18T11:44:05.118Z,4.60
2019-05-18T11:45:05.146Z,4.30
2019-05-18T11:46:05.165Z,5.30
2019-05-18T11:47:05.182Z,4.30
2019-05-18T11:48:05.221Z,5.50
2019-05-18T11:49:05.226Z,4.90
2019-05-18T11:50:05.235Z,4.60
2019-05-18T11:51:05.415Z,5.60
2019-05-18T11:52:05.278Z,5.50
2019-05-18T11:53:05.292Z,4.80
2019-05-18T11:54:05.338Z,6.00
2019-05-18T11:55:05.339Z,6.20
2019-05-18T11:56:05.356Z,5.70
2019-05-18T11:57:05.379Z,5.70
2019-05-18T11:58:05.397Z,5.90
2019-05-18T11:59:05.460Z,5.80
2019-05-18T12:00:05.439Z,6.20
2019-05-18T12:01:05.547Z,6.40
2019-05-18T12:02:05.481Z,5.60
2019-05-18T12:03:05.498Z,5.50
2019-05-18T12:04:05.508Z,5.00
2019-05-18T12:05:05.518Z,5.00
2019-05-18T12:06:05.540Z,5.20
2019-05-18T12:07:05.555Z,4.70
2019-05-18T12:08:05.608Z,4.10
2019-05-18T12:09:05.601Z,4.60
2019-05-18T12:10:05.622Z,4.50
2019-05-18T12:11:05.631Z,4.00
2019-05-18T12:12:05.647Z,4.10
2019-05-18T12:13:05.679Z,4.10
2019-05-18T12:14:05.702Z,3.80
2019-05-18T12:15:05.716Z,3.00
2019-05-18T12:16:05.737Z,2.80
2019-05-18T12:17:05.743Z,4.50
2019-05-18T12:18:05.877Z,4.50
2019-05-18T12:19:05.783Z,3.70
2019-05-18T12:20:05.798Z,3.10
2019-05-18T12:21:05.832Z,4.30
2019-05-18T12:22:05.837Z,3.40
2019-05-18T12:23:08.247Z,4.00
2019-05-18T12:24:14.845Z,3.60
2019-05-18T12:25:05.885Z,4.20
2019-05-18T12:26:05.904Z,3.80
2019-05-18T12:27:05.919Z,3.70
2019-05-18T12:28:05.966Z,4.50
2019-05-18T12:29:05.954Z,4.00
2019-05-18T12:30:05.965Z,4.00
2019-05-18T12:31:05.987Z,4.50
2019-05-18T12:32:06.005Z,3.90
2019-05-18T12:33:06.032Z,4.20
2019-05-18T12:34:06.039Z,4.20
2019-05-18T12:35:06.067Z,3.70
2019-05-18T12:36:06.118Z,3.30
2019-05-18T12:37:06.089Z,3.60
2019-05-18T12:38:06.103Z,3.10
2019-05-18T12:39:06.133Z,2.60
2019-05-18T12:40:06.151Z,2.60
2019-05-18T12:41:06.151Z,3.00
2019-05-18T12:42:07.695Z,3.00
2019-05-18T12:43:06.214Z,2.90
2019-05-18T12:44:06.201Z,2.80
2019-05-18T12:45:06.220Z,2.70
2019-05-18T12:46:06.238Z,2.60
2019-05-18T12:47:06.265Z,2.40
2019-05-18T12:48:06.272Z,2.30
2019-05-18T12:49:06.288Z,2.10
2019-05-18T12:50:06.305Z,1.90
2019-05-18T12:51:06.328Z,1.70
2019-05-18T12:52:06.342Z,1.50
2019-05-18T12:53:06.371Z,1.70
2019-05-18T12:54:06.375Z,1.90
2019-05-18T12:55:06.401Z,1.60
2019-05-18T12:56:06.404Z,1.70
2019-05-18T12:57:06.438Z,1.60
2019-05-18T12:58:06.451Z,2.00
2019-05-18T12:59:06.467Z,2.30
2019-05-18T13:00:06.479Z,2.70
2019-05-18T13:01:06.494Z,2.00
2019-05-18T13:02:06.519Z,2.10
2019-05-18T13:03:06.538Z,1.80
2019-05-18T13:04:06.553Z,1.70